F/V Jeremi Simon — FHAF — position and weather

sailwx.info

Track history (hours):
 
Tides and Currents Weather Stations Pressure Air Temp Water Temp Dewpoint Dewpoint Depression Visibility Wind Speed Wind Dir Waves Ship Positions

F/V Jeremi Simon

Last reported at 2014-Sep-30 21:33 UTC. Time now 2014-Oct-02 02:29 UTC.
Position N 46°29' W 002°22'.

Length 20 m.

Type: Other ship. MMSI: 227415000.

Date/timePositionNaut miles runAvg speedWind from/ knotsBaromVisibWave heightAir tempDewpointWater temp
2014-Sep-30 21:33N 46°29' W 002°22'10 8.9
2014-Sep-30 20:25N 46°22' W 002°11'8 0.9
2014-Sep-30 11:33N 46°29' W 002°18'9 7.8
2014-Sep-30 10:27N 46°23' W 002°09'12 8.9
2014-Sep-30 09:05N 46°15' W 001°57'13 8.2
2014-Sep-30 07:29N 46°22' W 002°12'9 9.3
2014-Sep-30 06:33N 46°30' W 002°07'9 9.2
2014-Sep-30 05:33N 46°38' W 002°01'5 4.8
2014-Sep-30 04:33N 46°42' W 001°57'0 0.0
2014-Sep-28 15:33N 46°42' W 001°56'0 0.0
2014-Sep-28 14:31N 46°42' W 001°56'3 2.7
2014-Sep-28 13:33N 46°40' W 001°60'6 5.7
2014-Sep-28 12:33N 46°35' W 002°03'10 9.8
2014-Sep-28 11:34N 46°27' W 002°11'1 1.2
2014-Sep-28 10:33N 46°26' W 002°10'1 0.9
2014-Sep-28 09:17N 46°25' W 002°09'3 3.2
2014-Sep-28 08:27N 46°24' W 002°12'1 1.1
2014-Sep-28 07:32N 46°24' W 002°11'8 8.0
2014-Sep-28 06:34N 46°31' W 002°07'10 9.9
2014-Sep-28 05:34N 46°40' W 001°59'3 1.9
2014-Sep-28 04:08N 46°42' W 001°57'  
2014-Sep-24 20:21N 46°42' W 001°57'0 0.0
2014-Sep-24 19:34N 46°42' W 001°57'5 4.6
2014-Sep-24 18:33N 46°38' W 001°60'10 9.8
2014-Sep-24 17:33N 46°29' W 002°06'8 8.4
2014-Sep-24 16:33N 46°21' W 002°11'3 2.6
2014-Sep-24 15:33N 46°23' W 002°09'13 3.8
2014-Sep-24 12:13N 46°13' W 001°59'1 0.7
2014-Sep-24 10:31N 46°13' W 002°01'13 3.1
2014-Sep-24 06:16N 46°24' W 002°10'6 9.0
2014-Sep-24 05:34N 46°30' W 002°08'10 9.8
2014-Sep-24 04:34N 46°38' W 002°00'4 0.3
2014-Sep-23 16:33N 46°42' W 001°57'0 0.0
2014-Sep-23 15:32N 46°42' W 001°57'4 3.6
2014-Sep-23 14:29N 46°38' W 001°58'8 9.2
2014-Sep-23 13:33N 46°30' W 002°00'9 7.9
2014-Sep-23 12:28N 46°21' W 002°02'4 0.9
2014-Sep-23 08:13N 46°17' W 002°03'3 3.6
2014-Sep-23 07:30N 46°20' W 002°03'3 3.5
2014-Sep-23 06:33N 46°22' W 002°06'8 7.9
2014-Sep-23 05:33N 46°30' W 002°09'10 9.8
2014-Sep-23 04:33N 46°38' W 002°01'5 4.7
2014-Sep-23 03:33N 46°42' W 001°57'0 0.0
2014-Sep-22 20:29N 46°42' W 001°57'0 0.0
2014-Sep-22 15:28N 46°42' W 001°57'0 0.1
2014-Sep-22 14:33N 46°42' W 001°57'1 1.5
2014-Sep-22 13:33N 46°41' W 001°58'1010.3
2014-Sep-22 12:33N 46°32' W 002°06'8 7.6
2014-Sep-22 11:32N 46°25' W 002°12'0 0.5
2014-Sep-22 10:31N 46°25' W 002°11'4 2.0
2014-Sep-22 08:29N 46°28' W 002°15'2 2.0
2014-Sep-22 07:33N 46°28' W 002°12'4 3.3
2014-Sep-22 06:29N 46°24' W 002°10'8 8.3
2014-Sep-22 05:33N 46°31' W 002°05'10 9.7
2014-Sep-22 04:33N 46°40' W 001°58'2 0.2
2014-Sep-21 14:33N 46°42' W 001°57'0 0.1
2014-Sep-21 13:34N 46°42' W 001°57'3 3.2
2014-Sep-21 12:34N 46°39' W 001°59'1010.2
2014-Sep-21 11:34N 46°30' W 002°06'5 5.2
2014-Sep-21 10:33N 46°25' W 002°10'1 0.8
2014-Sep-21 09:32N 46°25' W 002°10'3 3.5
2014-Sep-21 08:34N 46°27' W 002°07'3 2.8
2014-Sep-21 07:34N 46°25' W 002°08'2 1.5
2014-Sep-21 06:30N 46°24' W 002°06'5 5.5
2014-Sep-21 05:33N 46°28' W 002°02'8 8.3
2014-Sep-21 04:34N 46°36' W 001°58'6 6.3
2014-Sep-21 03:33N 46°42' W 001°57'  
Track history (hours):
 
Tides and Currents Weather Stations Pressure Air Temp Water Temp Dewpoint Dewpoint Depression Visibility Wind Speed Wind Dir Waves Ship Positions

F/V Jeremi Simon

Last reported at 2014-Sep-30 21:33 UTC. Time now 2014-Oct-02 02:29 UTC.
Position N 46°29' W 002°22'.

Length 20 m.

Type: Other ship. MMSI: 227415000.

Date/timePositionNaut miles runAvg speedWind from/ knotsBaromVisibWave heightAir tempDewpointWater temp
2014-Sep-30 21:33N 46°29' W 002°22'10 8.9
2014-Sep-30 20:25N 46°22' W 002°11'8 0.9
2014-Sep-30 11:33N 46°29' W 002°18'9 7.8
2014-Sep-30 10:27N 46°23' W 002°09'12 8.9
2014-Sep-30 09:05N 46°15' W 001°57'13 8.2
2014-Sep-30 07:29N 46°22' W 002°12'9 9.3
2014-Sep-30 06:33N 46°30' W 002°07'9 9.2
2014-Sep-30 05:33N 46°38' W 002°01'5 4.8
2014-Sep-30 04:33N 46°42' W 001°57'0 0.0
2014-Sep-28 15:33N 46°42' W 001°56'0 0.0
2014-Sep-28 14:31N 46°42' W 001°56'3 2.7
2014-Sep-28 13:33N 46°40' W 001°60'6 5.7
2014-Sep-28 12:33N 46°35' W 002°03'10 9.8
2014-Sep-28 11:34N 46°27' W 002°11'1 1.2
2014-Sep-28 10:33N 46°26' W 002°10'1 0.9
2014-Sep-28 09:17N 46°25' W 002°09'3 3.2
2014-Sep-28 08:27N 46°24' W 002°12'1 1.1
2014-Sep-28 07:32N 46°24' W 002°11'8 8.0
2014-Sep-28 06:34N 46°31' W 002°07'10 9.9
2014-Sep-28 05:34N 46°40' W 001°59'3 1.9
2014-Sep-28 04:08N 46°42' W 001°57'  
2014-Sep-24 20:21N 46°42' W 001°57'0 0.0
2014-Sep-24 19:34N 46°42' W 001°57'5 4.6
2014-Sep-24 18:33N 46°38' W 001°60'10 9.8
2014-Sep-24 17:33N 46°29' W 002°06'8 8.4
2014-Sep-24 16:33N 46°21' W 002°11'3 2.6
2014-Sep-24 15:33N 46°23' W 002°09'13 3.8
2014-Sep-24 12:13N 46°13' W 001°59'1 0.7
2014-Sep-24 10:31N 46°13' W 002°01'13 3.1
2014-Sep-24 06:16N 46°24' W 002°10'6 9.0
2014-Sep-24 05:34N 46°30' W 002°08'10 9.8
2014-Sep-24 04:34N 46°38' W 002°00'4 0.3
2014-Sep-23 16:33N 46°42' W 001°57'0 0.0
2014-Sep-23 15:32N 46°42' W 001°57'4 3.6
2014-Sep-23 14:29N 46°38' W 001°58'8 9.2
2014-Sep-23 13:33N 46°30' W 002°00'9 7.9
2014-Sep-23 12:28N 46°21' W 002°02'4 0.9
2014-Sep-23 08:13N 46°17' W 002°03'3 3.6
2014-Sep-23 07:30N 46°20' W 002°03'3 3.5
2014-Sep-23 06:33N 46°22' W 002°06'8 7.9
2014-Sep-23 05:33N 46°30' W 002°09'10 9.8
2014-Sep-23 04:33N 46°38' W 002°01'5 4.7
2014-Sep-23 03:33N 46°42' W 001°57'0 0.0
2014-Sep-22 20:29N 46°42' W 001°57'0 0.0
2014-Sep-22 15:28N 46°42' W 001°57'0 0.1
2014-Sep-22 14:33N 46°42' W 001°57'1 1.5
2014-Sep-22 13:33N 46°41' W 001°58'1010.3
2014-Sep-22 12:33N 46°32' W 002°06'8 7.6
2014-Sep-22 11:32N 46°25' W 002°12'0 0.5
2014-Sep-22 10:31N 46°25' W 002°11'4 2.0
2014-Sep-22 08:29N 46°28' W 002°15'2 2.0
2014-Sep-22 07:33N 46°28' W 002°12'4 3.3
2014-Sep-22 06:29N 46°24' W 002°10'8 8.3
2014-Sep-22 05:33N 46°31' W 002°05'10 9.7
2014-Sep-22 04:33N 46°40' W 001°58'2 0.2
2014-Sep-21 14:33N 46°42' W 001°57'0 0.1
2014-Sep-21 13:34N 46°42' W 001°57'3 3.2
2014-Sep-21 12:34N 46°39' W 001°59'1010.2
2014-Sep-21 11:34N 46°30' W 002°06'5 5.2
2014-Sep-21 10:33N 46°25' W 002°10'1 0.8
2014-Sep-21 09:32N 46°25' W 002°10'3 3.5
2014-Sep-21 08:34N 46°27' W 002°07'3 2.8
2014-Sep-21 07:34N 46°25' W 002°08'2 1.5
2014-Sep-21 06:30N 46°24' W 002°06'5 5.5
2014-Sep-21 05:33N 46°28' W 002°02'8 8.3
2014-Sep-21 04:34N 46°36' W 001°58'6 6.3
2014-Sep-21 03:33N 46°42' W 001°57'  

Dump ship's entire track history